Time;durP1;ratioP1;P1;durP2;ratioP2;P2;SDS_P1;SDS_P2;PMS_P1;PMS_P2;Temp;Humidity;BMP_temperature;BMP_pressure;BME280_temperature;BME280_humidity;BME280_pressure;Samples;Min_cycle;Max_cycle;Signal;HPM_P1;HPM_P2
2022/06/16 00:00:36;;;;;;;1.37;1.15;;;;;;;16.51;53.34;99934.72;1728325;80;21772;-62
2022/06/16 00:03:05;;;;;;;1.30;1.20;;;;;;;16.51;53.60;99940.03;1735082;80;21559;-63
2022/06/16 00:05:34;;;;;;;3.42;1.12;;;;;;;16.49;53.57;99937.47;1728324;80;21415;-63
2022/06/16 00:08:04;;;;;;;2.75;1.17;;;;;;;16.51;53.56;99939.55;1732441;80;21490;-63
2022/06/16 00:10:31;;;;;;;2.95;1.20;;;;;;;16.51;53.57;99940.03;1724847;80;21550;-64
2022/06/16 00:12:59;;;;;;;1.77;1.40;;;;;;;16.52;53.68;99940.42;1718219;82;21610;-63
2022/06/16 00:15:31;;;;;;;6.13;1.20;;;;;;;16.54;53.42;99942.02;1735841;80;21518;-62
2022/06/16 00:17:58;;;;;;;3.08;1.30;;;;;;;16.53;53.59;99934.16;1732062;80;21491;-64
2022/06/16 00:20:24;;;;;;;2.52;1.27;;;;;;;16.54;53.53;99932.73;1691581;83;21475;-63
2022/06/16 00:22:51;;;;;;;1.90;1.02;;;;;;;16.55;53.70;99934.42;1702241;83;21431;-63
2022/06/16 00:25:18;;;;;;;1.40;1.00;;;;;;;16.58;53.61;99933.88;1691328;82;21752;-63
2022/06/16 00:27:44;;;;;;;2.55;1.30;;;;;;;16.57;53.61;99936.14;1732915;80;21104;-63
2022/06/16 00:30:13;;;;;;;2.33;1.57;;;;;;;16.58;53.60;99929.41;1730678;80;21672;-64
2022/06/16 00:32:41;;;;;;;6.80;1.32;;;;;;;16.58;53.73;99936.05;1695261;83;21135;-63
2022/06/16 00:35:10;;;;;;;2.83;1.22;;;;;;;16.59;54.10;99931.10;1727170;80;21045;-63
2022/06/16 00:37:38;;;;;;;3.22;1.40;;;;;;;16.68;54.16;99933.17;1691335;83;21839;-63
2022/06/16 00:40:06;;;;;;;3.50;1.43;;;;;;;16.74;53.82;99929.28;1727734;80;21580;-61
2022/06/16 00:42:33;;;;;;;1.65;1.10;;;;;;;16.72;53.93;99929.38;1733018;80;21545;-62
2022/06/16 00:45:02;;;;;;;1.77;1.35;;;;;;;16.74;53.82;99931.48;1725436;80;21045;-63
2022/06/16 00:47:30;;;;;;;3.05;1.72;;;;;;;16.72;53.92;99936.01;1729418;80;21538;-63
2022/06/16 00:50:00;;;;;;;3.60;1.57;;;;;;;16.69;53.78;99930.91;1731077;80;21928;-63
2022/06/16 00:52:31;;;;;;;1.85;1.40;;;;;;;16.65;53.90;99937.38;1729038;80;21515;-63
2022/06/16 00:55:15;;;;;;;1.50;1.35;;;;;;;16.60;54.09;99936.80;1733663;80;21589;-64
2022/06/16 00:57:47;;;;;;;2.20;1.42;;;;;;;16.54;54.52;99938.53;1698342;83;21672;-63
2022/06/16 01:00:51;;;;;;;3.17;1.70;;;;;;;16.50;54.46;99935.20;1689010;83;21546;-63
2022/06/16 01:02:53;;;;;;;4.33;1.80;;;;;;;16.48;54.62;99938.89;1708809;82;21460;-63
2022/06/16 01:05:20;;;;;;;2.10;1.70;;;;;;;16.45;54.80;99935.96;1697299;83;21568;-64
2022/06/16 01:07:46;;;;;;;6.37;1.82;;;;;;;16.44;54.91;99938.22;1694007;83;21572;-64
2022/06/16 01:10:14;;;;;;;2.58;1.62;;;;;;;16.41;55.07;99941.57;1655195;83;21435;-62
2022/06/16 01:16:25;;;;;;;5.28;1.60;;;;;;;16.44;55.30;99932.91;1696684;83;21879;-62
2022/06/16 01:19:33;;;;;;;4.10;1.40;;;;;;;16.54;55.39;99938.53;1725942;80;21561;-62
2022/06/16 01:22:09;;;;;;;2.22;1.60;;;;;;;16.51;55.29;99938.22;1725710;80;21594;-62
2022/06/16 01:25:06;;;;;;;2.35;1.77;;;;;;;16.47;55.59;99935.39;1725775;80;21503;-62
2022/06/16 01:28:00;;;;;;;4.35;1.62;;;;;;;16.44;55.81;99939.55;1692835;82;21502;-62
2022/06/16 01:31:00;;;;;;;1.82;1.62;;;;;;;16.39;55.79;99938.13;1686921;83;21980;-62
2022/06/16 01:34:08;;;;;;;3.42;1.70;;;;;;;16.33;55.98;99940.24;1687115;83;21056;-63
2022/06/16 01:36:51;;;;;;;1.77;1.60;;;;;;;16.28;56.26;99939.66;1748342;80;21551;-62
2022/06/16 01:39:36;;;;;;;5.37;1.90;;;;;;;16.23;56.38;99937.77;1721159;81;21534;-63
2022/06/16 01:42:11;;;;;;;2.40;1.70;;;;;;;16.21;56.54;99939.66;1678614;84;21629;-63
2022/06/16 01:44:55;;;;;;;3.72;1.62;;;;;;;16.20;57.02;99930.46;1690557;84;21797;-63
2022/06/16 01:47:23;;;;;;;3.62;1.77;;;;;;;16.28;57.04;99932.19;1692376;82;21438;-62
2022/06/16 01:50:02;;;;;;;2.70;1.75;;;;;;;16.29;56.89;99936.08;1714586;81;21579;-63
2022/06/16 01:52:51;;;;;;;4.28;1.77;;;;;;;16.23;57.24;99927.15;1683547;83;21791;-63
2022/06/16 01:55:22;;;;;;;4.85;1.87;;;;;;;16.23;57.20;99927.15;1687919;84;21676;-63
2022/06/16 01:58:01;;;;;;;7.17;1.60;;;;;;;16.24;57.12;99926.22;1709023;81;21788;-63
2022/06/16 02:00:27;;;;;;;3.95;1.80;;;;;;;16.24;57.18;99927.55;1719516;80;21574;-63
2022/06/16 02:03:04;;;;;;;3.87;1.72;;;;;;;16.21;57.20;99938.33;1724195;80;20998;-63
2022/06/16 02:05:56;;;;;;;3.17;1.82;;;;;;;16.23;56.98;99940.41;1683813;84;21558;-63
2022/06/16 02:08:28;;;;;;;3.62;1.80;;;;;;;16.23;57.01;99937.77;1676949;84;21432;-63
2022/06/16 02:11:01;;;;;;;4.72;1.75;;;;;;;16.29;57.16;99929.45;1680066;84;21482;-63
2022/06/16 02:13:32;;;;;;;2.75;1.90;;;;;;;16.45;57.02;99928.48;1712591;81;21416;-63
2022/06/16 02:16:12;;;;;;;2.62;1.92;;;;;;;16.51;56.72;99942.20;1712128;81;20979;-64
2022/06/16 02:18:40;;;;;;;5.60;1.77;;;;;;;16.52;56.71;99945.73;1719215;81;21836;-64
2022/06/16 02:21:32;;;;;;;2.37;1.62;;;;;;;16.54;56.64;99944.68;1722464;80;21566;-63
2022/06/16 02:24:01;;;;;;;2.58;1.57;;;;;;;16.59;56.47;99952.34;1719055;80;21802;-65
2022/06/16 02:26:28;;;;;;;2.80;2.15;;;;;;;16.60;56.36;99952.73;1713660;82;21430;-63
2022/06/16 02:28:57;;;;;;;3.05;1.87;;;;;;;16.61;56.47;99955.75;1717928;81;21034;-63
2022/06/16 02:31:48;;;;;;;3.95;1.92;;;;;;;16.63;56.65;99955.20;1683821;83;21601;-63
2022/06/16 02:34:36;;;;;;;2.33;1.82;;;;;;;16.67;56.54;99955.83;1674450;84;20955;-63
2022/06/16 02:37:18;;;;;;;3.52;1.82;;;;;;;16.71;56.50;99956.89;1727971;81;21882;-64
2022/06/16 02:40:16;;;;;;;2.50;1.40;;;;;;;16.81;56.58;99958.96;1682314;84;21455;-63
2022/06/16 02:43:33;;;;;;;2.40;2.20;;;;;;;16.88;56.09;99958.98;1694209;81;21486;-62
2022/06/16 02:46:36;;;;;;;3.33;2.05;;;;;;;16.95;56.29;99957.62;1686435;84;21564;-63
2022/06/16 02:49:28;;;;;;;3.80;2.17;;;;;;;16.95;56.09;99962.08;1718077;81;21534;-62
2022/06/16 02:52:03;;;;;;;2.90;2.10;;;;;;;17.00;56.27;99969.29;1691738;83;21786;-62
2022/06/16 02:55:10;;;;;;;5.00;2.63;;;;;;;17.07;56.16;99965.30;1687082;83;21131;-62
2022/06/16 02:57:42;;;;;;;4.05;2.55;;;;;;;17.07;56.57;99962.63;1687816;83;20965;-62
2022/06/16 03:00:14;;;;;;;6.33;2.95;;;;;;;17.08;56.58;99969.64;1715642;81;21514;-62
2022/06/16 03:02:41;;;;;;;2.35;2.10;;;;;;;17.08;56.78;99964.33;1725384;81;21542;-63
2022/06/16 03:05:12;;;;;;;3.17;2.35;;;;;;;17.09;57.10;99968.70;1713224;82;21531;-62
2022/06/16 03:07:39;;;;;;;3.40;2.40;;;;;;;17.16;57.20;99973.13;1717346;80;21561;-64
2022/06/16 03:10:13;;;;;;;5.35;2.10;;;;;;;17.10;56.97;99960.64;1720552;81;21452;-62
2022/06/16 03:12:42;;;;;;;5.12;2.67;;;;;;;17.15;56.88;99968.29;1724623;81;21514;-62
2022/06/16 03:15:11;;;;;;;3.12;2.40;;;;;;;17.16;56.69;99969.14;1686531;83;21561;-62
2022/06/16 03:17:39;;;;;;;3.08;2.60;;;;;;;17.13;56.54;99970.20;1681881;84;21801;-63
2022/06/16 03:20:06;;;;;;;3.13;2.10;;;;;;;17.10;56.44;99975.25;1691709;84;21498;-63
2022/06/16 03:22:33;;;;;;;4.00;2.55;;;;;;;17.05;56.54;99972.52;1690377;82;21689;-62
2022/06/16 03:25:00;;;;;;;4.83;2.53;;;;;;;17.03;56.55;99968.62;1686050;84;21628;-61
2022/06/16 03:27:27;;;;;;;3.30;2.62;;;;;;;17.01;56.60;99973.63;1685485;84;21696;-62
2022/06/16 03:29:55;;;;;;;5.12;2.15;;;;;;;17.03;56.72;99971.27;1685331;82;21853;-62
2022/06/16 03:32:22;;;;;;;5.27;2.30;;;;;;;17.07;56.79;99971.45;1687497;84;21522;-62
2022/06/16 03:34:49;;;;;;;4.47;2.45;;;;;;;17.22;56.75;99976.73;1683410;84;21521;-61
2022/06/16 03:37:17;;;;;;;2.98;2.15;;;;;;;17.34;56.47;99975.06;1684827;83;21463;-63
2022/06/16 03:39:47;;;;;;;3.62;2.30;;;;;;;17.37;56.40;99977.05;1680867;84;21448;-62
2022/06/16 03:42:15;;;;;;;3.83;2.40;;;;;;;17.45;56.37;99980.53;1680427;84;21791;-61
2022/06/16 03:44:41;;;;;;;;;;;;;;;17.51;56.41;99972.14;1686945;83;21553;-63
2022/06/16 03:47:09;;;;;;;3.42;2.40;;;;;;;17.50;56.51;99973.95;1669780;83;20186;-63
2022/06/16 03:49:38;;;;;;;3.47;2.33;;;;;;;17.55;56.17;99970.98;1682516;83;21512;-62
2022/06/16 03:52:05;;;;;;;4.28;2.40;;;;;;;17.64;56.00;99965.53;1723826;81;21486;-61
2022/06/16 03:54:34;;;;;;;4.67;2.67;;;;;;;17.75;55.85;99974.12;1678666;84;21812;-61
2022/06/16 03:57:04;;;;;;;2.35;1.95;;;;;;;17.84;55.68;99974.38;1685966;84;21514;-61
2022/06/16 03:59:31;;;;;;;3.05;2.10;;;;;;;17.95;55.53;99972.78;1715225;80;21538;-61
2022/06/16 04:01:59;;;;;;;2.98;2.52;;;;;;;18.03;55.42;99971.32;1725505;81;21673;-62
2022/06/16 04:04:28;;;;;;;3.72;2.15;;;;;;;18.10;55.56;99970.40;1717158;82;21582;-62
2022/06/16 04:06:59;;;;;;;3.25;1.82;;;;;;;18.24;55.65;99967.64;1714857;81;21616;-62
2022/06/16 04:09:27;;;;;;;2.62;2.00;;;;;;;18.43;55.64;99970.36;1714229;80;21086;-62
2022/06/16 04:11:56;;;;;;;5.45;1.92;;;;;;;18.59;55.07;99970.98;1726579;81;21554;-61
2022/06/16 04:14:23;;;;;;;3.77;2.47;;;;;;;18.65;54.74;99974.53;1710383;81;21478;-61
2022/06/16 04:16:53;;;;;;;2.85;1.98;;;;;;;18.77;54.22;99967.96;1714366;81;21524;-61
2022/06/16 04:19:22;;;;;;;4.22;2.10;;;;;;;18.91;53.96;99973.64;1725195;80;22061;-61
2022/06/16 04:21:52;;;;;;;4.12;2.37;;;;;;;18.99;53.74;99973.47;1715031;81;21575;-62
2022/06/16 04:24:22;;;;;;;4.35;1.82;;;;;;;19.08;53.43;99975.09;1722873;80;21503;-62
2022/06/16 04:26:51;;;;;;;2.42;2.00;;;;;;;19.13;53.39;99978.27;1676531;83;20994;-62
2022/06/16 04:29:19;;;;;;;2.47;2.22;;;;;;;19.19;53.49;99973.81;1691842;83;21582;-65
2022/06/16 04:31:47;;;;;;;2.75;1.90;;;;;;;19.27;53.25;99978.13;1693265;83;21534;-62
2022/06/16 04:34:14;;;;;;;3.80;2.12;;;;;;;19.33;52.81;99979.00;1689978;83;20942;-62
2022/06/16 04:36:41;;;;;;;4.25;2.00;;;;;;;19.39;52.61;99983.86;1731551;80;21499;-62
2022/06/16 04:39:13;;;;;;;2.35;1.70;;;;;;;19.46;52.04;99981.61;1729647;82;21002;-62
2022/06/16 04:41:42;;;;;;;3.10;1.98;;;;;;;19.52;51.82;99977.14;1728336;80;21501;-62
2022/06/16 04:44:11;;;;;;;3.10;2.08;;;;;;;19.62;51.89;99977.30;1734282;80;22057;-62
2022/06/16 04:46:39;;;;;;;2.15;1.72;;;;;;;19.69;52.04;99981.20;1736475;80;21554;-63
2022/06/16 04:49:06;;;;;;;3.62;1.98;;;;;;;19.75;52.49;99982.09;1739494;82;21514;-63
2022/06/16 04:51:38;;;;;;;4.15;2.10;;;;;;;19.85;52.46;99982.25;1728333;80;21096;-62
2022/06/16 04:54:07;;;;;;;4.05;1.77;;;;;;;19.92;51.86;99985.31;1733732;80;21065;-62
2022/06/16 04:56:36;;;;;;;2.45;1.98;;;;;;;19.98;51.69;99984.34;1720129;80;22088;-61
2022/06/16 04:59:04;;;;;;;4.37;1.60;;;;;;;20.07;51.39;99984.13;1722188;80;21503;-62
2022/06/16 05:01:35;;;;;;;2.98;1.52;;;;;;;20.12;50.53;99983.30;1663727;82;20994;-61
2022/06/16 05:04:13;;;;;;;4.92;2.00;;;;;;;20.15;50.59;99981.70;1687210;83;21431;-60
2022/06/16 05:06:42;;;;;;;3.55;2.40;;;;;;;20.22;50.51;99974.09;1681333;83;21550;-61
2022/06/16 05:09:14;;;;;;;1.95;1.70;;;;;;;20.29;50.58;99979.81;1720299;80;21801;-61
2022/06/16 05:11:40;;;;;;;3.58;2.15;;;;;;;20.37;50.20;99978.72;1695013;82;21585;-62
2022/06/16 05:14:08;;;;;;;4.45;1.85;;;;;;;20.42;50.20;99976.55;1725390;80;21533;-61
2022/06/16 05:16:53;;;;;;;3.67;2.15;;;;;;;20.50;50.32;99979.45;1741495;80;21466;-61
2022/06/16 05:19:34;;;;;;;3.92;2.10;;;;;;;20.61;50.25;99981.31;1734102;80;21439;-61
2022/06/16 05:22:05;;;;;;;6.83;1.67;;;;;;;20.72;49.96;99976.42;1732724;80;21994;-63
2022/06/16 05:24:51;;;;;;;3.60;1.80;;;;;;;20.81;49.55;99970.34;1691275;82;21009;-63
2022/06/16 05:27:22;;;;;;;3.25;1.70;;;;;;;20.87;49.41;99976.55;1720480;81;21460;-60
2022/06/16 05:30:07;;;;;;;5.22;1.52;;;;;;;20.97;48.58;99976.66;1723549;80;21499;-60
2022/06/16 05:32:48;;;;;;;1.62;1.42;;;;;;;21.05;47.73;99981.38;1684689;84;21415;-61
2022/06/16 05:35:17;;;;;;;2.62;1.47;;;;;;;21.11;47.62;99980.88;1684166;83;21920;-60
2022/06/16 05:37:52;;;;;;;1.75;1.40;;;;;;;21.17;47.16;99987.92;1681818;84;21624;-57
2022/06/16 05:40:23;;;;;;;6.90;1.37;;;;;;;21.24;46.93;99980.72;1692082;82;21506;-57
2022/06/16 05:43:07;;;;;;;4.58;2.22;;;;;;;21.30;46.83;99989.07;1698116;83;21545;-57
2022/06/16 05:45:44;;;;;;;4.08;1.60;;;;;;;21.35;46.82;99987.38;1692261;82;21531;-56
2022/06/16 05:48:24;;;;;;;4.20;1.50;;;;;;;21.44;46.34;99988.45;1686438;82;21439;-56
2022/06/16 05:50:52;;;;;;;5.37;1.20;;;;;;;21.51;46.00;99990.52;1689957;84;21041;-56
2022/06/16 05:53:20;;;;;;;1.65;1.30;;;;;;;21.57;45.24;99989.16;1720135;81;20951;-58
2022/06/16 05:55:49;;;;;;;1.90;1.20;;;;;;;21.64;44.84;99990.81;1711930;81;21456;-58
2022/06/16 05:58:17;;;;;;;5.10;1.30;;;;;;;21.66;44.63;99987.05;1680652;84;21577;-57
2022/06/16 06:00:46;;;;;;;3.42;1.05;;;;;;;21.73;45.00;99984.70;1679562;84;22089;-58
2022/06/16 06:03:13;;;;;;;2.15;1.32;;;;;;;21.79;44.56;99984.17;1691182;84;25732;-59
2022/06/16 06:05:41;;;;;;;2.55;1.12;;;;;;;21.85;44.24;99988.16;1720392;81;21025;-58
2022/06/16 06:16:37;;;;;;;1.72;1.40;;;;;;;22.05;42.44;99980.63;1689797;82;21497;-61
2022/06/16 06:22:05;;;;;;;2.12;1.40;;;;;;;22.17;42.85;99978.74;1718907;82;21487;-60
2022/06/16 06:24:43;;;;;;;2.08;1.32;;;;;;;22.16;43.21;99980.55;1728357;81;21510;-61
2022/06/16 06:27:35;;;;;;;1.95;1.17;;;;;;;22.19;43.02;99978.58;1687183;83;22246;-60
2022/06/16 06:30:16;;;;;;;3.47;1.35;;;;;;;22.20;43.31;99986.98;1720126;80;21567;-59
2022/06/16 06:32:42;;;;;;;6.00;1.60;;;;;;;22.30;43.28;99987.45;1730463;80;21503;-61
2022/06/16 06:35:10;;;;;;;1.65;1.17;;;;;;;22.30;43.28;99987.45;1729549;80;21537;-60
2022/06/16 06:37:37;;;;;;;2.85;1.25;;;;;;;22.36;42.78;99983.39;1729868;80;26822;-60
2022/06/16 06:40:06;;;;;;;4.25;1.35;;;;;;;22.18;42.60;99942.94;1724486;80;21884;-60
2022/06/16 06:42:33;;;;;;;2.42;1.20;;;;;;;22.51;42.16;99983.38;1735328;80;21422;-60
2022/06/16 06:45:02;;;;;;;1.50;1.10;;;;;;;22.58;41.73;99987.70;1695977;82;21547;-60
2022/06/16 06:47:30;;;;;;;2.40;1.30;;;;;;;22.62;42.34;99985.59;1696744;83;21569;-60
2022/06/16 06:49:56;;;;;;;;;;;;;;;22.70;42.16;99981.77;1700278;83;21498;-61
2022/06/16 06:52:24;;;;;;;2.12;1.22;;;;;;;22.81;41.12;99992.39;1674118;83;20666;-61
2022/06/16 06:54:53;;;;;;;5.00;1.40;;;;;;;22.79;40.98;99984.95;1740272;80;21387;-62
2022/06/16 06:57:23;;;;;;;4.70;1.15;;;;;;;22.89;40.52;99983.67;1736333;80;21536;-63
2022/06/16 06:59:51;;;;;;;2.35;1.30;;;;;;;22.96;40.82;99978.08;1731885;80;21682;-63
2022/06/16 07:02:19;;;;;;;3.65;1.62;;;;;;;23.06;40.17;99978.17;1730486;80;21692;-63
2022/06/16 07:04:47;;;;;;;4.05;1.10;;;;;;;23.17;40.28;99977.17;1730635;82;21776;-61
2022/06/16 07:07:17;;;;;;;3.00;1.15;;;;;;;23.17;40.28;99977.17;1690764;83;21010;-63
2022/06/16 07:09:44;;;;;;;4.70;1.85;;;;;;;23.24;39.75;99977.82;1727612;80;21490;-63
2022/06/16 07:12:15;;;;;;;3.08;1.70;;;;;;;23.29;40.00;99973.39;1738080;80;21566;-62
2022/06/16 07:14:44;;;;;;;3.05;1.40;;;;;;;23.39;39.83;99970.72;1729588;80;21533;-62
2022/06/16 07:17:12;;;;;;;2.22;1.10;;;;;;;23.49;40.19;99967.56;1727693;82;21888;-63
2022/06/16 07:19:38;;;;;;;3.08;1.30;;;;;;;23.56;39.28;99965.98;1728205;80;21514;-63
2022/06/16 07:22:06;;;;;;;2.35;1.22;;;;;;;23.66;38.45;99962.81;1735088;80;21495;-63
2022/06/16 07:24:32;;;;;;;;;;;;;;;23.77;38.21;99954.25;1727494;80;21451;-62
2022/06/16 07:26:59;;;;;;;6.15;1.30;;;;;;;23.96;38.40;99960.98;1736064;80;20563;-63
2022/06/16 07:29:28;;;;;;;1.30;1.07;;;;;;;24.08;38.04;99965.18;1733297;80;21892;-63
2022/06/16 07:31:55;;;;;;;1.17;0.85;;;;;;;24.13;37.86;99962.08;1722099;80;21420;-62
2022/06/16 07:34:22;;;;;;;2.02;1.12;;;;;;;24.20;38.11;99953.76;1732457;80;21565;-62
2022/06/16 07:36:49;;;;;;;1.27;0.88;;;;;;;24.22;38.29;99954.96;1726533;80;21582;-64
2022/06/16 07:39:15;;;;;;;5.75;1.30;;;;;;;24.09;38.23;99960.17;1719306;80;21435;-63
2022/06/16 07:41:42;;;;;;;3.95;1.35;;;;;;;23.88;38.28;99959.48;1723147;80;21577;-64
2022/06/16 07:44:11;;;;;;;3.87;1.60;;;;;;;23.81;38.05;99963.73;1728989;80;20986;-65
2022/06/16 07:46:39;;;;;;;8.08;1.22;;;;;;;23.68;37.70;99956.81;1728662;80;21072;-65
2022/06/16 07:49:07;;;;;;;2.55;1.20;;;;;;;23.71;38.76;99963.25;1727893;80;21570;-65
2022/06/16 07:51:34;;;;;;;2.85;0.95;;;;;;;23.80;38.19;99961.55;1736561;80;21399;-65
2022/06/16 07:54:00;;;;;;;1.97;1.17;;;;;;;23.97;38.58;99950.58;1726185;80;21891;-66
2022/06/16 07:56:27;;;;;;;1.75;1.07;;;;;;;24.22;37.16;99961.68;1730021;80;21534;-65
2022/06/16 07:58:54;;;;;;;1.85;0.95;;;;;;;24.39;36.36;99956.91;1730684;80;21084;-66
2022/06/16 08:01:21;;;;;;;3.55;1.32;;;;;;;24.46;36.68;99962.02;1727963;80;21573;-65
2022/06/16 08:03:48;;;;;;;6.87;1.50;;;;;;;24.60;34.99;99943.73;1683828;84;21621;-67
2022/06/16 08:06:18;;;;;;;2.22;1.00;;;;;;;24.76;36.01;99949.33;1688979;84;21769;-68
2022/06/16 08:08:46;;;;;;;2.80;1.00;;;;;;;24.79;34.98;99953.55;1733779;80;21403;-65
2022/06/16 08:14:00;;;;;;;1.05;0.82;;;;;;;24.71;34.99;99948.08;1723763;79;21613;-69
2022/06/16 08:16:30;;;;;;;3.95;0.98;;;;;;;24.62;35.49;99951.16;1734174;80;21042;-64
2022/06/16 08:18:58;;;;;;;1.67;1.35;;;;;;;24.65;35.53;99950.87;1670670;83;21845;-65
2022/06/16 08:21:25;;;;;;;3.22;2.33;;;;;;;24.68;35.05;99951.42;1687299;82;21609;-64
2022/06/16 08:23:53;;;;;;;2.12;1.57;;;;;;;24.68;35.64;99952.77;1722612;80;25776;-65
2022/06/16 08:26:20;;;;;;;2.40;1.87;;;;;;;24.69;36.06;99952.26;1725792;80;21010;-69
2022/06/16 08:28:47;;;;;;;2.05;1.80;;;;;;;24.71;35.70;99954.80;1738294;80;21454;-65
2022/06/16 08:31:17;;;;;;;3.58;1.90;;;;;;;24.70;34.92;99949.93;1738210;80;21475;-65
2022/06/16 08:33:44;;;;;;;3.72;1.30;;;;;;;24.65;34.89;99952.21;1737220;80;21460;-66
2022/06/16 08:36:12;;;;;;;1.98;1.15;;;;;;;24.69;34.38;99937.47;1738718;80;21506;-66
2022/06/16 08:40:47;;;;;;;2.12;1.00;;;;;;;24.57;34.34;99942.20;1777307;79;23212;-65
2022/06/16 08:43:27;;;;;;;4.20;0.90;;;;;;;24.57;34.34;99942.20;1732924;80;21533;-65
2022/06/16 08:45:58;;;;;;;1.47;1.00;;;;;;;24.57;34.58;99945.40;1745505;81;21416;-65
2022/06/16 08:48:52;;;;;;;3.15;1.00;;;;;;;24.45;35.25;99945.56;1700408;82;20941;-64
2022/06/16 08:51:33;;;;;;;2.47;0.98;;;;;;;24.38;34.79;99946.30;1698335;82;21011;-67
2022/06/16 08:54:33;;;;;;;3.05;1.40;;;;;;;24.27;34.70;99936.06;1683602;83;21550;-67
2022/06/16 08:57:24;;;;;;;0.75;0.75;;;;;;;24.31;36.27;99943.84;1680862;83;21621;-65
2022/06/16 09:00:09;;;;;;;1.27;0.80;;;;;;;24.32;34.91;99941.48;1689602;83;21547;-65
2022/06/16 09:02:53;;;;;;;2.05;1.12;;;;;;;24.33;35.02;99937.83;1694231;83;21520;-63
2022/06/16 09:05:31;;;;;;;1.87;1.27;;;;;;;24.44;34.76;99930.92;1708392;82;21661;-66
2022/06/16 09:08:11;;;;;;;1.50;1.07;;;;;;;24.56;34.06;99935.62;1701804;82;21658;-65
2022/06/16 09:10:55;;;;;;;3.27;1.20;;;;;;;24.70;33.99;99933.80;1693917;82;22129;-64
2022/06/16 09:13:33;;;;;;;2.47;1.40;;;;;;;24.81;33.84;99925.53;1683613;82;21872;-66
2022/06/16 09:16:27;;;;;;;1.75;0.95;;;;;;;24.92;33.57;99931.68;1699585;82;21579;-64
2022/06/16 09:19:24;;;;;;;1.35;0.90;;;;;;;25.01;33.32;99928.92;1694208;82;21539;-59
2022/06/16 09:21:58;;;;;;;1.50;0.90;;;;;;;25.22;33.88;99926.44;1686734;82;21454;-58
2022/06/16 09:24:45;;;;;;;2.02;1.00;;;;;;;25.44;32.63;99919.79;1693438;82;21448;-58
2022/06/16 09:27:19;;;;;;;;;;;;;;;25.58;32.62;99915.69;1695934;82;22147;-58
2022/06/16 09:30:10;;;;;;;3.00;0.78;;;;;;;25.69;32.32;99917.30;1691410;82;20429;-58
2022/06/16 09:32:48;;;;;;;1.92;1.00;;;;;;;25.80;32.77;99926.47;1696328;82;21451;-63
2022/06/16 09:35:23;;;;;;;1.70;0.80;;;;;;;25.77;32.03;99926.80;1698857;82;21494;-61
2022/06/16 09:38:17;;;;;;;0.90;0.82;;;;;;;25.67;31.25;99924.69;1695733;82;21510;-59
2022/06/16 09:42:32;;;;;;;2.65;0.70;;;;;;;25.60;31.56;99919.94;1693423;83;21881;-62
2022/06/16 09:43:42;;;;;;;5.92;0.90;;;;;;;25.76;31.85;99921.05;1696102;82;21419;-64
2022/06/16 09:46:20;;;;;;;3.52;1.42;;;;;;;26.01;31.85;99918.05;1706204;83;20962;-63
2022/06/16 09:49:02;;;;;;;1.20;0.80;;;;;;;26.17;30.35;99922.20;1705043;82;21538;-59
2022/06/16 09:51:38;;;;;;;0.95;0.70;;;;;;;26.28;30.78;99921.08;1691469;82;21641;-58
2022/06/16 09:54:24;;;;;;;1.92;0.80;;;;;;;26.42;30.65;99918.28;1705998;82;21781;-59
2022/06/16 09:56:59;;;;;;;3.50;1.10;;;;;;;26.48;30.38;99916.78;1688413;82;21529;-60
2022/06/16 09:59:33;;;;;;;1.12;0.90;;;;;;;26.35;30.29;99923.97;1702323;82;21610;-62
2022/06/16 10:02:06;;;;;;;1.17;0.72;;;;;;;26.29;30.39;99918.71;1701533;82;21640;-61
2022/06/16 10:04:33;;;;;;;1.67;0.80;;;;;;;26.40;30.18;99917.08;1700624;82;21621;-61
2022/06/16 10:07:29;;;;;;;1.70;1.00;;;;;;;26.34;30.13;99924.47;1706044;82;21872;-62
2022/06/16 10:10:12;;;;;;;3.95;1.00;;;;;;;26.23;30.58;99913.97;1698022;83;21577;-63
2022/06/16 10:12:56;;;;;;;1.67;0.90;;;;;;;26.37;30.81;99916.56;1696825;82;21061;-61
2022/06/16 10:15:32;;;;;;;4.28;1.20;;;;;;;26.63;31.30;99913.84;1692524;82;21030;-61
2022/06/16 10:17:59;;;;;;;1.00;0.90;;;;;;;26.78;30.91;99922.15;1698739;82;21797;-61
2022/06/16 10:20:28;;;;;;;1.00;0.90;;;;;;;26.78;30.96;99913.55;1699207;82;21847;-62
2022/06/16 10:23:21;;;;;;;1.22;0.98;;;;;;;26.67;30.36;99919.23;1706172;82;21427;-62
2022/06/16 10:25:57;;;;;;;2.33;0.90;;;;;;;26.48;31.23;99919.48;1701738;82;21518;-61
2022/06/16 10:28:35;;;;;;;3.50;1.02;;;;;;;26.41;31.53;99916.60;1708175;82;21565;-62
2022/06/16 10:31:03;;;;;;;1.50;0.98;;;;;;;26.32;31.69;99910.83;1692437;82;21634;-62
2022/06/16 10:33:36;;;;;;;1.35;0.60;;;;;;;26.26;31.35;99910.09;1694565;82;21909;-62
2022/06/16 10:36:20;;;;;;;4.17;0.90;;;;;;;26.07;31.08;99904.44;1696793;82;21515;-63
2022/06/16 10:39:17;;;;;;;0.90;0.80;;;;;;;25.91;31.22;99907.86;1698872;82;21609;-62
2022/06/16 10:42:05;;;;;;;1.45;0.90;;;;;;;25.74;30.68;99905.05;1689563;82;21460;-62
2022/06/16 10:44:33;;;;;;;2.85;0.80;;;;;;;25.64;31.05;99905.16;1700109;82;21515;-61
2022/06/16 10:47:03;;;;;;;2.58;1.20;;;;;;;25.68;31.38;99902.99;1694117;82;21879;-62
2022/06/16 10:49:34;;;;;;;1.60;0.90;;;;;;;25.66;30.65;99896.09;1694509;82;21502;-62
2022/06/16 10:52:14;;;;;;;4.33;0.93;;;;;;;25.60;30.81;99894.36;1709327;82;21994;-60
2022/06/16 10:54:46;;;;;;;1.95;1.00;;;;;;;25.58;30.98;99892.80;1697576;82;21545;-62
2022/06/16 10:57:17;;;;;;;1.50;1.00;;;;;;;25.57;31.06;99889.78;1692383;82;21450;-60
2022/06/16 10:59:52;;;;;;;1.60;1.42;;;;;;;25.61;31.27;99889.30;1703587;82;21785;-61
2022/06/16 11:02:27;;;;;;;0.95;0.78;;;;;;;25.72;31.07;99887.37;1689613;82;21430;-62
2022/06/16 11:05:11;;;;;;;1.87;0.78;;;;;;;25.90;30.27;99890.00;1684999;83;21459;-61
2022/06/16 11:07:41;;;;;;;2.35;0.68;;;;;;;26.05;30.77;99884.91;1677536;82;21594;-60
2022/06/16 11:10:13;;;;;;;0.90;0.88;;;;;;;26.14;30.25;99890.17;1672891;84;21090;-60
2022/06/16 11:12:47;;;;;;;3.20;0.70;;;;;;;26.14;29.78;99885.30;1691131;83;21053;-60
2022/06/16 11:15:36;;;;;;;1.77;1.10;;;;;;;26.09;29.99;99889.83;1681963;83;21503;-60
2022/06/16 11:18:07;;;;;;;0.75;0.70;;;;;;;26.19;29.59;99888.36;1673926;83;21001;-59
2022/06/16 11:20:42;;;;;;;1.87;1.30;;;;;;;26.33;29.49;99888.25;1654290;84;21572;-61
2022/06/16 11:23:31;;;;;;;3.08;1.47;;;;;;;26.48;29.21;99888.48;1680946;83;21011;-61
2022/06/16 11:26:17;;;;;;;2.42;1.10;;;;;;;26.51;28.99;99891.70;1678987;83;21597;-60
2022/06/16 11:28:51;;;;;;;4.67;0.70;;;;;;;26.46;28.88;99885.94;1686753;82;21570;-61
2022/06/16 11:31:23;;;;;;;2.65;0.90;;;;;;;26.55;29.33;99878.73;1674334;84;21525;-60
2022/06/16 11:34:29;;;;;;;1.90;1.10;;;;;;;26.67;28.87;99880.14;1681112;83;21520;-60
2022/06/16 11:37:34;;;;;;;3.52;1.35;;;;;;;26.77;29.29;99878.67;1633111;85;21591;-60
2022/06/16 11:40:32;;;;;;;1.52;1.00;;;;;;;26.89;28.54;99875.98;1626978;85;22165;-60
2022/06/16 11:43:49;;;;;;;2.15;0.72;;;;;;;26.97;28.14;99874.67;1628475;85;21596;-61
2022/06/16 11:46:36;;;;;;;2.47;0.95;;;;;;;26.96;27.58;99870.78;1626419;85;21525;-61
2022/06/16 11:49:28;;;;;;;2.17;0.60;;;;;;;26.84;27.67;99868.05;1577295;85;21567;-60
2022/06/16 11:52:21;;;;;;;2.80;0.90;;;;;;;26.85;28.69;99865.20;1630340;85;21651;-61
2022/06/16 11:55:23;;;;;;;2.22;0.78;;;;;;;26.86;28.36;99865.55;1608181;85;21971;-62
2022/06/16 11:58:13;;;;;;;1.85;0.93;;;;;;;26.85;28.37;99864.36;1618636;86;21461;-61
2022/06/16 12:01:02;;;;;;;1.25;0.72;;;;;;;26.85;28.66;99867.89;1627350;85;21601;-60
2022/06/16 12:04:01;;;;;;;2.45;0.70;;;;;;;26.94;28.69;99863.37;1641308;85;21598;-58
2022/06/16 12:07:03;;;;;;;2.27;0.85;;;;;;;27.07;28.01;99865.55;1637571;84;21579;-60
2022/06/16 12:10:20;;;;;;;1.05;0.78;;;;;;;27.24;27.56;99858.30;1658711;84;21939;-61
2022/06/16 12:13:04;;;;;;;3.62;1.00;;;;;;;27.44;27.58;99852.94;1660108;84;21543;-61
2022/06/16 12:15:52;;;;;;;0.98;0.70;;;;;;;27.64;27.31;99848.55;1663209;84;21512;-60
2022/06/16 12:18:46;;;;;;;3.05;1.00;;;;;;;27.82;27.03;99842.92;1649916;84;21541;-61
2022/06/16 12:21:50;;;;;;;1.12;0.88;;;;;;;27.78;26.66;99845.12;1653696;84;21420;-59
2022/06/16 12:24:25;;;;;;;1.80;1.15;;;;;;;27.72;27.08;99852.58;1656139;84;21758;-60
2022/06/16 12:27:03;;;;;;;3.37;0.70;;;;;;;27.53;27.18;99843.82;1660565;84;21480;-61
2022/06/16 12:29:50;;;;;;;1.72;0.90;;;;;;;27.52;27.58;99846.20;1646629;84;21137;-59
2022/06/16 12:32:46;;;;;;;1.05;0.80;;;;;;;27.49;27.97;99847.05;1650939;84;21485;-59